Time;durP1;ratioP1;P1;durP2;ratioP2;P2;SDS_P1;SDS_P2;PMS_P1;PMS_P2;Temp;Humidity;BMP_temperature;BMP_pressure;BME280_temperature;BME280_humidity;BME280_pressure;Samples;Min_cycle;Max_cycle;Signal;HPM_P1;HPM_P2
2021/09/27 00:00:20;;;;;;;;;;;;;;;;;;2104385;27;4601;-73
2021/09/27 00:01:21;;;;;;;;;;;;;;;;;;2106765;27;1209;-73
2021/09/27 00:02:21;;;;;;;;;;;;;;;;;;2106585;27;1137;-73
2021/09/27 00:03:23;;;;;;;;;;;;;;;;;;2106142;27;4352;-72
2021/09/27 00:04:23;;;;;;;;;;;;;;;;;;2106839;27;1340;-73
2021/09/27 00:05:24;;;;;;;;;;;;;;;;;;2106467;27;2694;-73
2021/09/27 00:06:25;;;;;;;;;;;;;;;;;;2106251;27;1424;-73
2021/09/27 00:07:27;;;;;;;;;;;;;;;;;;2106158;27;3630;-72
2021/09/27 00:08:29;;;;;;;;;;;;;;;;;;2101781;27;4378;-72
2021/09/27 00:09:32;;;;;;;;;;;;;;;;;;2104874;27;1979;-73
2021/09/27 00:10:33;;;;;;;;;;;;;;;;;;2105468;27;3991;-72
2021/09/27 00:11:35;;;;;;;;;;;;;;;;;;2106000;27;1273;-72
2021/09/27 00:12:35;;;;;;;;;;;;;;;;;;2106497;27;1960;-73
2021/09/27 00:13:36;;;;;;;;;;;;;;;;;;2105278;27;4547;-73
2021/09/27 00:14:36;;;;;;;;;;;;;;;;;;2105615;27;4395;-73
2021/09/27 00:15:37;;;;;;;;;;;;;;;;;;2104240;27;3876;-73
2021/09/27 00:16:37;;;;;;;;;;;;;;;;;;2106039;27;1100;-72
2021/09/27 00:17:38;;;;;;;;;;;;;;;;;;2103433;27;4670;-73
2021/09/27 00:18:39;;;;;;;;;;;;;;;;;;2103375;27;4332;-73
2021/09/27 00:19:40;;;;;;;;;;;;;;;;;;2103124;27;3563;-73
2021/09/27 00:20:40;;;;;;;;;;;;;;;;;;2102022;27;4501;-73
2021/09/27 00:21:41;;;;;;;;;;;;;;;;;;2103938;27;3311;-73
2021/09/27 00:22:41;;;;;;;;;;;;;;;;;;2104850;27;4521;-73
2021/09/27 00:23:42;;;;;;;;;;;;;;;;;;2104068;27;4936;-73
2021/09/27 00:24:42;;;;;;;;;;;;;;;;;;2104649;27;4703;-73
2021/09/27 00:25:43;;;;;;;;;;;;;;;;;;2104296;27;2332;-73
2021/09/27 00:26:43;;;;;;;;;;;;;;;;;;2103598;27;4571;-73
2021/09/27 00:27:44;;;;;;;;;;;;;;;;;;2105722;27;1190;-73
2021/09/27 00:28:45;;;;;;;;;;;;;;;;;;2103147;27;4671;-72
2021/09/27 00:29:46;;;;;;;;;;;;;;;;;;2103690;27;4198;-73
2021/09/27 00:30:47;;;;;;;;;;;;;;;;;;2103939;27;4718;-73
2021/09/27 00:31:48;;;;;;;;;;;;;;;;;;2104504;27;4545;-72
2021/09/27 00:32:48;;;;;;;;;;;;;;;;;;2103833;27;2220;-72
2021/09/27 00:33:49;;;;;;;;;;;;;;;;;;2103891;27;4073;-72
2021/09/27 00:34:49;;;;;;;;;;;;;;;;;;2100914;27;4875;-73
2021/09/27 00:35:51;;;;;;;;;;;;;;;;;;2104365;27;3030;-72
2021/09/27 00:36:51;;;;;;;;;;;;;;;;;;2103134;27;3468;-73
2021/09/27 00:37:52;;;;;;;;;;;;;;;;;;2104216;27;2687;-72
2021/09/27 00:38:52;;;;;;;;;;;;;;;;;;2101838;27;4398;-72
2021/09/27 00:39:53;;;;;;;;;;;;;;;;;;2103800;27;3015;-72
2021/09/27 00:40:53;;;;;;;;;;;;;;;;;;2101798;27;3635;-72
2021/09/27 00:41:54;;;;;;;;;;;;;;;;;;2101441;27;4676;-73
2021/09/27 00:42:54;;;;;;;;;;;;;;;;;;2102248;27;4611;-72
2021/09/27 00:43:55;;;;;;;;;;;;;;;;;;2103739;28;4495;-72
2021/09/27 00:44:56;;;;;;;;;;;;;;;;;;2102470;27;4306;-72
2021/09/27 00:45:57;;;;;;;;;;;;;;;;;;2103593;27;3325;-73
2021/09/27 00:46:57;;;;;;;;;;;;;;;;;;2102259;27;4051;-73
2021/09/27 00:47:58;;;;;;;;;;;;;;;;;;2102670;27;4535;-73
2021/09/27 00:48:59;;;;;;;;;;;;;;;;;;2100814;27;4478;-73
2021/09/27 00:50:00;;;;;;;;;;;;;;;;;;2102986;28;4481;-73
2021/09/27 00:51:00;;;;;;;;;;;;;;;;;;2101946;27;3717;-72
2021/09/27 00:52:01;;;;;;;;;;;;;;;;;;2102357;28;4502;-72
2021/09/27 00:53:01;;;;;;;;;;;;;;;;;;2100250;28;4637;-73
2021/09/27 00:54:02;;;;;;;;;;;;;;;;;;2098828;28;4940;-73
2021/09/27 00:55:02;;;;;;;;;;;;;;;;;;2103433;27;1784;-73
2021/09/27 00:56:03;;;;;;;;;;;;;;;;;;2101463;28;4490;-72
2021/09/27 00:57:04;;;;;;;;;;;;;;;;;;2101246;27;1146;-73
2021/09/27 00:58:05;;;;;;;;;;;;;;;;;;2100640;28;4443;-72
2021/09/27 00:59:05;;;;;;;;;;;;;;;;;;2099126;28;4731;-73
2021/09/27 01:00:06;;;;;;;;;;;;;;;;;;2102320;27;1087;-73
2021/09/27 01:01:06;;;;;;;;;;;;;;;;;;2100930;27;5005;-73
2021/09/27 01:02:08;;;;;;;;;;;;;;;;;;2101609;27;4262;-72
2021/09/27 01:03:08;;;;;;;;;;;;;;;;;;2103315;27;4237;-73
2021/09/27 01:04:09;;;;;;;;;;;;;;;;;;2101137;27;4209;-73
2021/09/27 01:05:09;;;;;;;;;;;;;;;;;;2103025;27;4453;-72
2021/09/27 01:06:10;;;;;;;;;;;;;;;;;;2103970;27;4146;-73
2021/09/27 01:07:10;;;;;;;;;;;;;;;;;;2101665;27;3824;-72
2021/09/27 01:08:11;;;;;;;;;;;;;;;;;;2101923;27;4678;-73
2021/09/27 01:09:11;;;;;;;;;;;;;;;;;;2102217;27;4530;-73
2021/09/27 01:10:13;;;;;;;;;;;;;;;;;;2101918;27;4911;-72
2021/09/27 01:11:13;;;;;;;;;;;;;;;;;;2103097;27;4679;-73
2021/09/27 01:12:14;;;;;;;;;;;;;;;;;;2102642;27;4810;-72
2021/09/27 01:13:14;;;;;;;;;;;;;;;;;;2104065;27;2359;-73
2021/09/27 01:14:15;;;;;;;;;;;;;;;;;;2103822;27;4269;-72
2021/09/27 01:15:15;;;;;;;;;;;;;;;;;;2104273;27;2137;-73
2021/09/27 01:16:16;;;;;;;;;;;;;;;;;;2104222;27;3279;-72
2021/09/27 01:17:16;;;;;;;;;;;;;;;;;;2104199;27;3959;-73
2021/09/27 01:18:17;;;;;;;;;;;;;;;;;;2105381;27;4278;-73
2021/09/27 01:19:17;;;;;;;;;;;;;;;;;;2105277;27;5077;-72
2021/09/27 01:20:19;;;;;;;;;;;;;;;;;;2105067;28;4423;-73
2021/09/27 01:21:19;;;;;;;;;;;;;;;;;;2106781;27;4739;-73
2021/09/27 01:22:20;;;;;;;;;;;;;;;;;;2105953;27;4863;-73
2021/09/27 01:23:20;;;;;;;;;;;;;;;;;;2106321;27;4681;-73
2021/09/27 01:24:21;;;;;;;;;;;;;;;;;;2107080;27;4699;-73
2021/09/27 01:25:21;;;;;;;;;;;;;;;;;;2105742;27;4636;-72
2021/09/27 01:26:22;;;;;;;;;;;;;;;;;;2106712;27;2071;-72
2021/09/27 01:27:22;;;;;;;;;;;;;;;;;;2106171;27;4661;-72
2021/09/27 01:28:23;;;;;;;;;;;;;;;;;;2102373;27;4562;-72
2021/09/27 01:29:23;;;;;;;;;;;;;;;;;;2106172;27;3155;-72
2021/09/27 01:30:25;;;;;;;;;;;;;;;;;;2104946;27;4532;-72
2021/09/27 01:31:25;;;;;;;;;;;;;;;;;;2105000;27;4683;-73
2021/09/27 01:32:26;;;;;;;;;;;;;;;;;;2105987;27;5224;-72
2021/09/27 01:33:26;;;;;;;;;;;;;;;;;;2106146;27;4103;-73
2021/09/27 01:34:27;;;;;;;;;;;;;;;;;;2106405;27;3374;-72
2021/09/27 01:35:27;;;;;;;;;;;;;;;;;;2104961;27;3587;-72
2021/09/27 01:36:28;;;;;;;;;;;;;;;;;;2106497;27;1749;-72
2021/09/27 01:37:28;;;;;;;;;;;;;;;;;;2106766;27;1340;-73
2021/09/27 01:38:29;;;;;;;;;;;;;;;;;;2104561;27;3029;-72
2021/09/27 01:39:29;;;;;;;;;;;;;;;;;;2104405;27;4505;-72
2021/09/27 01:40:31;;;;;;;;;;;;;;;;;;2106526;27;3447;-72
2021/09/27 01:41:31;;;;;;;;;;;;;;;;;;2104886;27;3154;-72
2021/09/27 01:42:32;;;;;;;;;;;;;;;;;;2106167;27;3397;-73
2021/09/27 01:43:32;;;;;;;;;;;;;;;;;;2105067;27;3408;-72
2021/09/27 01:44:34;;;;;;;;;;;;;;;;;;2104809;27;4612;-73
2021/09/27 01:45:35;;;;;;;;;;;;;;;;;;2105144;27;4415;-72
2021/09/27 01:46:36;;;;;;;;;;;;;;;;;;2105113;27;3604;-73
2021/09/27 01:47:36;;;;;;;;;;;;;;;;;;2104091;27;4410;-73
2021/09/27 01:48:37;;;;;;;;;;;;;;;;;;2104171;27;4613;-72
2021/09/27 01:49:37;;;;;;;;;;;;;;;;;;2104947;27;4723;-72
2021/09/27 01:50:38;;;;;;;;;;;;;;;;;;2105843;27;1221;-72
2021/09/27 01:51:39;;;;;;;;;;;;;;;;;;2105177;28;1060;-72
2021/09/27 01:52:40;;;;;;;;;;;;;;;;;;2104949;27;4206;-73
2021/09/27 01:53:40;;;;;;;;;;;;;;;;;;2105472;27;1108;-73
2021/09/27 01:54:42;;;;;;;;;;;;;;;;;;2103931;27;4098;-72
2021/09/27 01:55:42;;;;;;;;;;;;;;;;;;2105659;27;1173;-73
2021/09/27 01:56:43;;;;;;;;;;;;;;;;;;2104601;27;3655;-73
2021/09/27 01:57:44;;;;;;;;;;;;;;;;;;2105583;27;1446;-72
2021/09/27 01:58:44;;;;;;;;;;;;;;;;;;2103877;27;4230;-73
2021/09/27 01:59:45;;;;;;;;;;;;;;;;;;2104694;27;4618;-72
2021/09/27 02:00:45;;;;;;;;;;;;;;;;;;2103833;27;3745;-72
2021/09/27 02:01:46;;;;;;;;;;;;;;;;;;2105586;27;1161;-72
2021/09/27 02:02:46;;;;;;;;;;;;;;;;;;2105097;27;1177;-73
2021/09/27 02:03:47;;;;;;;;;;;;;;;;;;2105428;27;1069;-72
2021/09/27 02:04:48;;;;;;;;;;;;;;;;;;2100172;27;4615;-72
2021/09/27 02:05:49;;;;;;;;;;;;;;;;;;2104073;27;5112;-72
2021/09/27 02:06:49;;;;;;;;;;;;;;;;;;2105099;27;1170;-72
2021/09/27 02:07:50;;;;;;;;;;;;;;;;;;2105314;27;1790;-72
2021/09/27 02:08:50;;;;;;;;;;;;;;;;;;2102340;27;4531;-72
2021/09/27 02:09:51;;;;;;;;;;;;;;;;;;2103758;27;4963;-73
2021/09/27 02:10:51;;;;;;;;;;;;;;;;;;2104422;27;4668;-72
2021/09/27 02:11:52;;;;;;;;;;;;;;;;;;2104186;27;1225;-73
2021/09/27 02:12:52;;;;;;;;;;;;;;;;;;2104351;27;1052;-73
2021/09/27 02:13:53;;;;;;;;;;;;;;;;;;2103625;27;4558;-73
2021/09/27 02:14:54;;;;;;;;;;;;;;;;;;2102129;28;4711;-72
2021/09/27 02:15:55;;;;;;;;;;;;;;;;;;2102455;28;4094;-72
2021/09/27 02:16:55;;;;;;;;;;;;;;;;;;2102776;28;1348;-72
2021/09/27 02:17:56;;;;;;;;;;;;;;;;;;2101007;27;4497;-72
2021/09/27 02:18:56;;;;;;;;;;;;;;;;;;2100746;28;4395;-72
2021/09/27 02:19:57;;;;;;;;;;;;;;;;;;2101915;27;1213;-72
2021/09/27 02:20:57;;;;;;;;;;;;;;;;;;2102163;27;1660;-72
2021/09/27 02:21:58;;;;;;;;;;;;;;;;;;2101490;28;4560;-72
2021/09/27 02:22:59;;;;;;;;;;;;;;;;;;2100849;28;4327;-73
2021/09/27 02:24:00;;;;;;;;;;;;;;;;;;2101538;27;1640;-72
2021/09/27 02:25:00;;;;;;;;;;;;;;;;;;2100627;27;4725;-73
2021/09/27 02:26:01;;;;;;;;;;;;;;;;;;2101803;27;4759;-72
2021/09/27 02:27:02;;;;;;;;;;;;;;;;;;2101798;27;1202;-73
2021/09/27 02:28:03;;;;;;;;;;;;;;;;;;2102592;27;4309;-73
2021/09/27 02:29:04;;;;;;;;;;;;;;;;;;2100624;27;4414;-72
2021/09/27 02:30:05;;;;;;;;;;;;;;;;;;2102166;27;4518;-73
2021/09/27 02:31:05;;;;;;;;;;;;;;;;;;2102704;27;4999;-73
2021/09/27 02:32:06;;;;;;;;;;;;;;;;;;2101750;27;2695;-72
2021/09/27 02:33:06;;;;;;;;;;;;;;;;;;2102010;27;4443;-72
2021/09/27 02:34:07;;;;;;;;;;;;;;;;;;2102497;27;4571;-72
2021/09/27 02:35:08;;;;;;;;;;;;;;;;;;2104202;27;5500;-72
2021/09/27 02:36:09;;;;;;;;;;;;;;;;;;2102949;27;4661;-73
2021/09/27 02:37:09;;;;;;;;;;;;;;;;;;2103419;27;4449;-72
2021/09/27 02:38:10;;;;;;;;;;;;;;;;;;2104451;27;4417;-73
2021/09/27 02:39:10;;;;;;;;;;;;;;;;;;2101606;27;4408;-72
2021/09/27 02:40:11;;;;;;;;;;;;;;;;;;2104283;27;4419;-72
2021/09/27 02:41:11;;;;;;;;;;;;;;;;;;2102464;27;4529;-72
2021/09/27 02:42:12;;;;;;;;;;;;;;;;;;2103102;27;4656;-73
2021/09/27 02:43:12;;;;;;;;;;;;;;;;;;2103639;27;4596;-72
2021/09/27 02:44:13;;;;;;;;;;;;;;;;;;2104033;27;4720;-72
2021/09/27 02:45:15;;;;;;;;;;;;;;;;;;2103710;27;4876;-72
2021/09/27 02:46:15;;;;;;;;;;;;;;;;;;2103122;27;4025;-72
2021/09/27 02:47:16;;;;;;;;;;;;;;;;;;2103967;27;4708;-72
2021/09/27 02:48:18;;;;;;;;;;;;;;;;;;2102927;27;4380;-72
2021/09/27 02:49:24;;;;;;;;;;;;;;;;;;2104773;27;4546;-73
2021/09/27 02:50:26;;;;;;;;;;;;;;;;;;2103668;27;4423;-72
2021/09/27 02:51:27;;;;;;;;;;;;;;;;;;2105209;27;3735;-72
2021/09/27 02:52:27;;;;;;;;;;;;;;;;;;2104398;27;4327;-72
2021/09/27 02:53:28;;;;;;;;;;;;;;;;;;2105088;27;1017;-72
2021/09/27 02:54:28;;;;;;;;;;;;;;;;;;2104717;27;4393;-73
2021/09/27 02:55:30;;;;;;;;;;;;;;;;;;2105606;27;1426;-73
2021/09/27 02:56:30;;;;;;;;;;;;;;;;;;2105935;27;1164;-72
2021/09/27 02:57:31;;;;;;;;;;;;;;;;;;2106121;27;1235;-73
2021/09/27 02:58:31;;;;;;;;;;;;;;;;;;2104941;27;4107;-72
2021/09/27 02:59:32;;;;;;;;;;;;;;;;;;2107322;27;4570;-72
2021/09/27 03:00:32;;;;;;;;;;;;;;;;;;2106580;27;4487;-73
2021/09/27 03:01:33;;;;;;;;;;;;;;;;;;2106234;27;4632;-72
2021/09/27 03:02:33;;;;;;;;;;;;;;;;;;2106336;27;4745;-72
2021/09/27 03:03:34;;;;;;;;;;;;;;;;;;2104915;27;4655;-72
2021/09/27 03:04:34;;;;;;;;;;;;;;;;;;2106181;27;4280;-72
2021/09/27 03:05:36;;;;;;;;;;;;;;;;;;2104132;27;4681;-72
2021/09/27 03:06:36;;;;;;;;;;;;;;;;;;2105873;28;5431;-72
2021/09/27 03:07:37;;;;;;;;;;;;;;;;;;2105208;27;4370;-72
2021/09/27 03:08:37;;;;;;;;;;;;;;;;;;2105380;27;4763;-72
2021/09/27 03:09:38;;;;;;;;;;;;;;;;;;2105833;27;1689;-72
2021/09/27 03:10:38;;;;;;;;;;;;;;;;;;2106723;27;2027;-72
2021/09/27 03:11:39;;;;;;;;;;;;;;;;;;2105254;27;1222;-72
2021/09/27 03:12:40;;;;;;;;;;;;;;;;;;2106017;27;1686;-72
2021/09/27 03:13:41;;;;;;;;;;;;;;;;;;2105224;27;4741;-72
2021/09/27 03:14:42;;;;;;;;;;;;;;;;;;2104051;28;4785;-72
2021/09/27 03:15:42;;;;;;;;;;;;;;;;;;2102988;27;1450;-72
2021/09/27 03:16:43;;;;;;;;;;;;;;;;;;2104013;27;1543;-72
2021/09/27 03:17:45;;;;;;;;;;;;;;;;;;2105045;28;1695;-72
2021/09/27 03:18:46;;;;;;;;;;;;;;;;;;2103976;27;4281;-72
2021/09/27 03:19:47;;;;;;;;;;;;;;;;;;2104063;27;1025;-73
2021/09/27 03:20:49;;;;;;;;;;;;;;;;;;2105995;27;997;-72
2021/09/27 03:21:50;;;;;;;;;;;;;;;;;;2105634;27;1162;-72
2021/09/27 03:22:50;;;;;;;;;;;;;;;;;;2105484;27;1142;-72
2021/09/27 03:23:51;;;;;;;;;;;;;;;;;;2105386;27;1684;-72
2021/09/27 03:24:54;;;;;;;;;;;;;;;;;;2104279;27;4880;-73
2021/09/27 03:25:55;;;;;;;;;;;;;;;;;;2104775;27;2106;-72
2021/09/27 03:26:55;;;;;;;;;;;;;;;;;;2103739;28;5206;-73
2021/09/27 03:27:56;;;;;;;;;;;;;;;;;;2103823;27;4435;-72
2021/09/27 03:28:56;;;;;;;;;;;;;;;;;;2104615;27;4540;-72
2021/09/27 03:29:57;;;;;;;;;;;;;;;;;;2105811;27;1979;-72
2021/09/27 03:30:58;;;;;;;;;;;;;;;;;;2104878;27;1287;-72
2021/09/27 03:31:58;;;;;;;;;;;;;;;;;;2105617;27;1178;-72
2021/09/27 03:32:59;;;;;;;;;;;;;;;;;;2105384;27;1447;-72
2021/09/27 03:34:00;;;;;;;;;;;;;;;;;;2104944;28;1524;-72
2021/09/27 03:35:01;;;;;;;;;;;;;;;;;;2104677;27;4362;-72
2021/09/27 03:36:01;;;;;;;;;;;;;;;;;;2103290;27;3455;-72
2021/09/27 03:37:02;;;;;;;;;;;;;;;;;;2104370;28;2204;-72
2021/09/27 03:38:02;;;;;;;;;;;;;;;;;;2104861;27;1906;-72
2021/09/27 03:39:05;;;;;;;;;;;;;;;;;;2103128;28;2217;-72
2021/09/27 03:40:05;;;;;;;;;;;;;;;;;;2104688;28;1847;-72
2021/09/27 03:42:39;;;;;;;;;;;;;;;;;;2121485;27;2182;-72
2021/09/27 03:43:40;;;;;;;;;;;;;;;;;;2121722;27;1067;-72
2021/09/27 03:44:41;;;;;;;;;;;;;;;;;;2122195;27;1110;-72
2021/09/27 03:45:41;;;;;;;;;;;;;;;;;;2121389;27;4621;-72
2021/09/27 03:46:42;;;;;;;;;;;;;;;;;;2122182;27;1109;-73
2021/09/27 03:47:42;;;;;;;;;;;;;;;;;;2122595;27;1129;-72
2021/09/27 03:48:43;;;;;;;;;;;;;;;;;;2115348;27;4312;-72
2021/09/27 03:49:43;;;;;;;;;;;;;;;;;;2112513;27;4350;-72
2021/09/27 03:50:44;;;;;;;;;;;;;;;;;;2112573;27;4532;-72
2021/09/27 03:51:45;;;;;;;;;;;;;;;;;;2112999;27;4741;-72
2021/09/27 03:52:46;;;;;;;;;;;;;;;;;;2113621;27;4442;-72
2021/09/27 03:53:46;;;;;;;;;;;;;;;;;;2113394;27;4646;-72
2021/09/27 03:54:47;;;;;;;;;;;;;;;;;;2114373;27;4084;-72
2021/09/27 03:55:47;;;;;;;;;;;;;;;;;;2111741;27;4655;-72
2021/09/27 03:56:48;;;;;;;;;;;;;;;;;;2113714;27;1181;-72
2021/09/27 03:57:48;;;;;;;;;;;;;;;;;;2113389;27;4753;-72
2021/09/27 03:58:50;;;;;;;;;;;;;;;;;;2110197;27;4624;-72
2021/09/27 03:59:50;;;;;;;;;;;;;;;;;;2112149;27;4108;-72
2021/09/27 04:00:51;;;;;;;;;;;;;;;;;;2112983;27;4808;-72
2021/09/27 04:01:51;;;;;;;;;;;;;;;;;;2113431;27;4667;-72
2021/09/27 04:02:52;;;;;;;;;;;;;;;;;;2114262;27;4745;-72
2021/09/27 04:03:53;;;;;;;;;;;;;;;;;;2111890;27;5911;-72
2021/09/27 04:04:55;;;;;;;;;;;;;;;;;;2112563;27;4864;-72
2021/09/27 04:05:55;;;;;;;;;;;;;;;;;;2111938;27;2604;-72
2021/09/27 04:06:58;;;;;;;;;;;;;;;;;;2112916;27;3097;-72
2021/09/27 04:07:58;;;;;;;;;;;;;;;;;;2113353;27;4753;-72
2021/09/27 04:08:59;;;;;;;;;;;;;;;;;;2111485;27;4115;-72
2021/09/27 04:09:59;;;;;;;;;;;;;;;;;;2113782;27;1696;-72
2021/09/27 04:11:00;;;;;;;;;;;;;;;;;;2113854;27;2953;-72
2021/09/27 04:12:00;;;;;;;;;;;;;;;;;;2114537;27;4551;-72
2021/09/27 04:13:01;;;;;;;;;;;;;;;;;;2113119;27;4478;-72
2021/09/27 04:14:01;;;;;;;;;;;;;;;;;;2113773;27;4400;-72
2021/09/27 04:15:02;;;;;;;;;;;;;;;;;;2112939;27;4579;-72
2021/09/27 04:16:03;;;;;;;;;;;;;;;;;;2112562;27;2157;-72
2021/09/27 04:17:04;;;;;;;;;;;;;;;;;;2112434;27;3909;-72
2021/09/27 04:18:04;;;;;;;;;;;;;;;;;;2108905;27;5769;-73
2021/09/27 04:19:05;;;;;;;;;;;;;;;;;;2111098;27;4975;-72
2021/09/27 04:20:07;;;;;;;;;;;;;;;;;;2113772;27;4800;-72
2021/09/27 04:21:08;;;;;;;;;;;;;;;;;;2113289;27;4214;-72
2021/09/27 04:22:08;;;;;;;;;;;;;;;;;;2114604;27;3940;-72
2021/09/27 04:23:09;;;;;;;;;;;;;;;;;;2114680;27;4678;-73
2021/09/27 04:24:09;;;;;;;;;;;;;;;;;;2113560;27;4986;-72
2021/09/27 04:25:10;;;;;;;;;;;;;;;;;;2114187;27;4064;-72
2021/09/27 04:26:10;;;;;;;;;;;;;;;;;;2116510;27;1551;-72
2021/09/27 04:27:11;;;;;;;;;;;;;;;;;;2117378;27;1017;-72
2021/09/27 04:28:12;;;;;;;;;;;;;;;;;;2117063;27;1286;-72
2021/09/27 04:29:15;;;;;;;;;;;;;;;;;;2115657;27;3648;-72
2021/09/27 04:30:15;;;;;;;;;;;;;;;;;;2113867;27;4257;-72
2021/09/27 04:31:16;;;;;;;;;;;;;;;;;;2112913;27;4568;-72
2021/09/27 04:32:16;;;;;;;;;;;;;;;;;;2113565;27;3555;-72
2021/09/27 04:33:17;;;;;;;;;;;;;;;;;;2112602;27;3075;-72
2021/09/27 04:34:17;;;;;;;;;;;;;;;;;;2112283;27;1634;-72
2021/09/27 04:35:18;;;;;;;;;;;;;;;;;;2112933;27;1249;-72
2021/09/27 04:36:18;;;;;;;;;;;;;;;;;;2112586;27;5534;-72
2021/09/27 04:37:19;;;;;;;;;;;;;;;;;;2110844;27;4024;-72
2021/09/27 04:38:19;;;;;;;;;;;;;;;;;;2112056;27;1987;-72
2021/09/27 04:39:22;;;;;;;;;;;;;;;;;;2112066;27;3807;-72
2021/09/27 04:40:22;;;;;;;;;;;;;;;;;;2112612;27;1452;-72
2021/09/27 04:41:23;;;;;;;;;;;;;;;;;;2111686;27;4525;-72
2021/09/27 04:42:24;;;;;;;;;;;;;;;;;;2112468;27;1976;-72
2021/09/27 04:43:26;;;;;;;;;;;;;;;;;;2111979;27;4249;-72
2021/09/27 04:44:26;;;;;;;;;;;;;;;;;;2113330;27;1033;-72
2021/09/27 04:45:27;;;;;;;;;;;;;;;;;;2114584;27;2242;-72
2021/09/27 04:46:28;;;;;;;;;;;;;;;;;;2113575;27;4475;-72
2021/09/27 04:47:28;;;;;;;;;;;;;;;;;;2113318;27;1052;-72
2021/09/27 04:48:29;;;;;;;;;;;;;;;;;;2113066;27;2792;-72
2021/09/27 04:49:29;;;;;;;;;;;;;;;;;;2112972;27;1353;-72
2021/09/27 04:50:31;;;;;;;;;;;;;;;;;;2112554;27;3944;-72
2021/09/27 04:51:31;;;;;;;;;;;;;;;;;;2113487;27;1143;-72
2021/09/27 04:52:32;;;;;;;;;;;;;;;;;;2113594;27;4313;-72
2021/09/27 04:53:32;;;;;;;;;;;;;;;;;;2107493;27;4949;-72
2021/09/27 04:54:33;;;;;;;;;;;;;;;;;;2108318;27;4884;-72
2021/09/27 04:55:34;;;;;;;;;;;;;;;;;;2107486;27;4929;-72
2021/09/27 04:56:36;;;;;;;;;;;;;;;;;;2108479;27;1090;-72
2021/09/27 04:57:36;;;;;;;;;;;;;;;;;;2108733;27;1300;-73
2021/09/27 04:58:38;;;;;;;;;;;;;;;;;;2107767;27;3692;-72
2021/09/27 04:59:38;;;;;;;;;;;;;;;;;;2108055;27;4657;-72
2021/09/27 05:00:39;;;;;;;;;;;;;;;;;;2108664;27;2106;-72
2021/09/27 05:01:39;;;;;;;;;;;;;;;;;;2107912;27;4404;-72
2021/09/27 05:02:42;;;;;;;;;;;;;;;;;;2109222;27;4028;-72
2021/09/27 05:03:42;;;;;;;;;;;;;;;;;;2108434;27;1023;-72
2021/09/27 05:04:44;;;;;;;;;;;;;;;;;;2108579;27;1147;-72
2021/09/27 05:05:44;;;;;;;;;;;;;;;;;;2107169;27;4191;-72
2021/09/27 05:06:47;;;;;;;;;;;;;;;;;;2108047;27;1446;-72
2021/09/27 05:07:47;;;;;;;;;;;;;;;;;;2107415;27;4205;-72
2021/09/27 05:08:48;;;;;;;;;;;;;;;;;;2106816;27;4626;-72
2021/09/27 05:09:48;;;;;;;;;;;;;;;;;;2106970;27;4423;-72
2021/09/27 05:10:49;;;;;;;;;;;;;;;;;;2107792;27;990;-73
2021/09/27 05:11:50;;;;;;;;;;;;;;;;;;2106327;27;4582;-73
2021/09/27 05:12:51;;;;;;;;;;;;;;;;;;2107520;27;1131;-72
2021/09/27 05:13:51;;;;;;;;;;;;;;;;;;2106624;27;4434;-72
2021/09/27 05:14:52;;;;;;;;;;;;;;;;;;2107035;27;4313;-72
2021/09/27 05:15:52;;;;;;;;;;;;;;;;;;2107562;27;1204;-72
2021/09/27 05:16:53;;;;;;;;;;;;;;;;;;2107572;27;1197;-72
2021/09/27 05:17:55;;;;;;;;;;;;;;;;;;2107452;27;1282;-72
2021/09/27 05:18:56;;;;;;;;;;;;;;;;;;2106724;27;4522;-72
2021/09/27 05:19:57;;;;;;;;;;;;;;;;;;2107576;27;3817;-72
2021/09/27 05:20:57;;;;;;;;;;;;;;;;;;2107699;27;1194;-72
2021/09/27 05:21:58;;;;;;;;;;;;;;;;;;2107414;27;1914;-72
2021/09/27 05:22:59;;;;;;;;;;;;;;;;;;2106859;27;3978;-72
2021/09/27 05:23:59;;;;;;;;;;;;;;;;;;2107018;27;4526;-72
2021/09/27 05:25:00;;;;;;;;;;;;;;;;;;2107726;27;1060;-72
2021/09/27 05:26:01;;;;;;;;;;;;;;;;;;2107506;27;1048;-73
2021/09/27 05:27:02;;;;;;;;;;;;;;;;;;2108741;27;1383;-72
2021/09/27 05:28:02;;;;;;;;;;;;;;;;;;2107302;27;3475;-72
2021/09/27 05:29:03;;;;;;;;;;;;;;;;;;2107021;27;4469;-72
2021/09/27 05:30:03;;;;;;;;;;;;;;;;;;2107293;27;1173;-72
2021/09/27 05:31:04;;;;;;;;;;;;;;;;;;2106586;27;2094;-72
2021/09/27 05:32:04;;;;;;;;;;;;;;;;;;2108117;27;1077;-72
2021/09/27 05:33:05;;;;;;;;;;;;;;;;;;2107577;27;4538;-72
2021/09/27 05:34:05;;;;;;;;;;;;;;;;;;2107151;27;4596;-72
2021/09/27 05:35:06;;;;;;;;;;;;;;;;;;2107873;27;1153;-72
2021/09/27 05:36:11;;;;;;;;;;;;;;;;;;2108127;27;1618;-72
2021/09/27 05:37:12;;;;;;;;;;;;;;;;;;2108044;27;1153;-72
2021/09/27 05:38:13;;;;;;;;;;;;;;;;;;2107059;27;4171;-72
2021/09/27 05:39:13;;;;;;;;;;;;;;;;;;2107169;27;3863;-73
2021/09/27 05:40:14;;;;;;;;;;;;;;;;;;2107370;27;1391;-72
2021/09/27 05:41:15;;;;;;;;;;;;;;;;;;2107006;27;1446;-72
2021/09/27 05:42:16;;;;;;;;;;;;;;;;;;2107701;27;1914;-72
2021/09/27 05:43:16;;;;;;;;;;;;;;;;;;2106820;27;4417;-72
2021/09/27 05:44:17;;;;;;;;;;;;;;;;;;2108280;27;1378;-72
2021/09/27 05:45:17;;;;;;;;;;;;;;;;;;2107718;27;1041;-72
2021/09/27 05:46:18;;;;;;;;;;;;;;;;;;2107839;27;1001;-72
2021/09/27 05:47:18;;;;;;;;;;;;;;;;;;2107958;27;1198;-72
2021/09/27 05:48:19;;;;;;;;;;;;;;;;;;2107585;27;4635;-72
2021/09/27 05:49:19;;;;;;;;;;;;;;;;;;2107307;27;1799;-73
2021/09/27 05:50:20;;;;;;;;;;;;;;;;;;2107798;27;1811;-72
2021/09/27 05:51:21;;;;;;;;;;;;;;;;;;2107955;27;1714;-72
2021/09/27 05:52:22;;;;;;;;;;;;;;;;;;2107669;27;1481;-72
2021/09/27 05:53:22;;;;;;;;;;;;;;;;;;2108708;27;1684;-72
2021/09/27 05:54:23;;;;;;;;;;;;;;;;;;2106756;27;4442;-72
2021/09/27 05:55:23;;;;;;;;;;;;;;;;;;2107723;27;4716;-72
2021/09/27 05:56:24;;;;;;;;;;;;;;;;;;2107937;27;1485;-72
2021/09/27 05:57:24;;;;;;;;;;;;;;;;;;2108245;27;1108;-72
2021/09/27 05:58:25;;;;;;;;;;;;;;;;;;2107850;27;4446;-72
2021/09/27 05:59:26;;;;;;;;;;;;;;;;;;2107083;27;1158;-72
2021/09/27 06:00:27;;;;;;;;;;;;;;;;;;2107572;27;1083;-73
2021/09/27 06:01:27;;;;;;;;;;;;;;;;;;2107092;27;5143;-72
2021/09/27 06:02:28;;;;;;;;;;;;;;;;;;2107231;27;5000;-72
2021/09/27 06:03:30;;;;;;;;;;;;;;;;;;2106619;27;5384;-72
2021/09/27 06:04:31;;;;;;;;;;;;;;;;;;2106315;27;3486;-72
2021/09/27 06:05:33;;;;;;;;;;;;;;;;;;2106136;27;4658;-72
2021/09/27 06:06:35;;;;;;;;;;;;;;;;;;2106992;27;3400;-72
2021/09/27 06:07:36;;;;;;;;;;;;;;;;;;2107040;27;2179;-73
2021/09/27 06:08:36;;;;;;;;;;;;;;;;;;2107792;27;2111;-72
2021/09/27 06:09:37;;;;;;;;;;;;;;;;;;2106725;27;1134;-72
2021/09/27 06:10:38;;;;;;;;;;;;;;;;;;2109137;27;1475;-73
2021/09/27 06:11:39;;;;;;;;;;;;;;;;;;2107456;27;1350;-72
2021/09/27 06:12:39;;;;;;;;;;;;;;;;;;2107646;27;1784;-72
2021/09/27 06:13:40;;;;;;;;;;;;;;;;;;2107189;27;1245;-72
2021/09/27 06:14:40;;;;;;;;;;;;;;;;;;2107315;27;1168;-72
2021/09/27 06:15:41;;;;;;;;;;;;;;;;;;2108127;27;5115;-72
2021/09/27 06:16:41;;;;;;;;;;;;;;;;;;2107686;27;1320;-73
2021/09/27 06:17:42;;;;;;;;;;;;;;;;;;2108230;27;4546;-72
2021/09/27 06:18:43;;;;;;;;;;;;;;;;;;2107393;27;1619;-72
2021/09/27 06:19:44;;;;;;;;;;;;;;;;;;2107847;27;3889;-72
2021/09/27 06:20:44;;;;;;;;;;;;;;;;;;2106705;27;4914;-72
2021/09/27 06:21:45;;;;;;;;;;;;;;;;;;2107110;27;5405;-72
2021/09/27 06:22:45;;;;;;;;;;;;;;;;;;2107696;27;5049;-72
2021/09/27 06:23:46;;;;;;;;;;;;;;;;;;2107498;27;1128;-73
2021/09/27 06:24:46;;;;;;;;;;;;;;;;;;2106741;27;3417;-72
2021/09/27 06:25:47;;;;;;;;;;;;;;;;;;2108323;27;1098;-72
2021/09/27 06:26:47;;;;;;;;;;;;;;;;;;2106777;27;5212;-72
2021/09/27 06:27:49;;;;;;;;;;;;;;;;;;2108340;27;1175;-72
2021/09/27 06:28:49;;;;;;;;;;;;;;;;;;2107428;27;1316;-72
2021/09/27 06:29:50;;;;;;;;;;;;;;;;;;2107554;27;1072;-72
2021/09/27 06:30:50;;;;;;;;;;;;;;;;;;2107713;27;1069;-72
2021/09/27 06:31:51;;;;;;;;;;;;;;;;;;2107776;27;1216;-72
2021/09/27 06:32:51;;;;;;;;;;;;;;;;;;2107859;27;1089;-72
2021/09/27 06:33:52;;;;;;;;;;;;;;;;;;2107262;27;1559;-72
2021/09/27 06:34:53;;;;;;;;;;;;;;;;;;2107294;27;1224;-72
2021/09/27 06:35:53;;;;;;;;;;;;;;;;;;2107028;27;1661;-72
2021/09/27 06:36:54;;;;;;;;;;;;;;;;;;2107586;27;1113;-72
2021/09/27 06:37:55;;;;;;;;;;;;;;;;;;2107510;27;1302;-73
2021/09/27 06:38:56;;;;;;;;;;;;;;;;;;2107740;27;1264;-73
2021/09/27 06:39:57;;;;;;;;;;;;;;;;;;2106549;27;5425;-72
2021/09/27 06:40:57;;;;;;;;;;;;;;;;;;2107953;27;1126;-72
2021/09/27 06:41:58;;;;;;;;;;;;;;;;;;2106796;27;1392;-72
2021/09/27 06:42:58;;;;;;;;;;;;;;;;;;2107622;27;1980;-72
2021/09/27 06:43:59;;;;;;;;;;;;;;;;;;2107680;27;1208;-72
2021/09/27 06:44:59;;;;;;;;;;;;;;;;;;2107610;27;1068;-72
2021/09/27 06:46:00;;;;;;;;;;;;;;;;;;2107165;27;1623;-72
2021/09/27 06:47:01;;;;;;;;;;;;;;;;;;2106164;27;1647;-72
2021/09/27 06:48:02;;;;;;;;;;;;;;;;;;2106206;28;1496;-72
2021/09/27 06:49:03;;;;;;;;;;;;;;;;;;2106424;27;1365;-72
2021/09/27 06:50:03;;;;;;;;;;;;;;;;;;2106689;27;1174;-73
2021/09/27 06:51:04;;;;;;;;;;;;;;;;;;2106219;28;1114;-73
2021/09/27 06:52:05;;;;;;;;;;;;;;;;;;2105905;27;2920;-72
2021/09/27 06:53:05;;;;;;;;;;;;;;;;;;2106114;27;4565;-72
2021/09/27 06:54:06;;;;;;;;;;;;;;;;;;2106726;27;1686;-72
2021/09/27 06:55:06;;;;;;;;;;;;;;;;;;2106692;27;4556;-72
2021/09/27 06:56:07;;;;;;;;;;;;;;;;;;2107208;27;2345;-72
2021/09/27 06:57:08;;;;;;;;;;;;;;;;;;2107058;27;1173;-72
2021/09/27 06:58:09;;;;;;;;;;;;;;;;;;2107058;27;4811;-72
2021/09/27 06:59:11;;;;;;;;;;;;;;;;;;2105409;27;1291;-72
2021/09/27 07:00:14;;;;;;;;;;;;;;;;;;2106392;27;1541;-72
2021/09/27 07:01:14;;;;;;;;;;;;;;;;;;2107318;27;1221;-72
2021/09/27 07:02:16;;;;;;;;;;;;;;;;;;2106636;27;4879;-72
2021/09/27 07:03:16;;;;;;;;;;;;;;;;;;2106315;27;1972;-72